sensor_id;sensor_type;location;lat;lon;timestamp;P1;durP1;ratioP1;P2;durP2;ratioP2
80404;SDS011;69733;48.744;9.176;2023-05-16T00:00:19;13.17;;;8.03;;
80404;SDS011;69733;48.744;9.176;2023-05-16T00:02:45;12.65;;;8.20;;
80404;SDS011;69733;48.744;9.176;2023-05-16T00:05:10;12.43;;;7.60;;
80404;SDS011;69733;48.744;9.176;2023-05-16T00:07:38;12.63;;;7.45;;
80404;SDS011;69733;48.744;9.176;2023-05-16T00:10:09;12.63;;;8.40;;
80404;SDS011;69733;48.744;9.176;2023-05-16T00:12:35;12.18;;;7.85;;
80404;SDS011;69733;48.744;9.176;2023-05-16T00:15:01;12.07;;;8.50;;
80404;SDS011;69733;48.744;9.176;2023-05-16T00:17:29;12.02;;;8.05;;
80404;SDS011;69733;48.744;9.176;2023-05-16T00:19:54;14.20;;;8.52;;
80404;SDS011;69733;48.744;9.176;2023-05-16T00:22:25;13.23;;;9.38;;
80404;SDS011;69733;48.744;9.176;2023-05-16T00:24:51;14.95;;;8.90;;
80404;SDS011;69733;48.744;9.176;2023-05-16T00:27:17;20.52;;;9.65;;
80404;SDS011;69733;48.744;9.176;2023-05-16T00:30:05;12.38;;;8.27;;
80404;SDS011;69733;48.744;9.176;2023-05-16T00:32:31;15.57;;;9.27;;
80404;SDS011;69733;48.744;9.176;2023-05-16T00:34:56;15.10;;;9.02;;
80404;SDS011;69733;48.744;9.176;2023-05-16T00:37:22;18.35;;;10.40;;
80404;SDS011;69733;48.744;9.176;2023-05-16T00:39:50;19.92;;;10.57;;
80404;SDS011;69733;48.744;9.176;2023-05-16T00:42:17;15.67;;;10.63;;
80404;SDS011;69733;48.744;9.176;2023-05-16T00:44:44;17.55;;;10.43;;
80404;SDS011;69733;48.744;9.176;2023-05-16T00:47:09;17.55;;;12.07;;
80404;SDS011;69733;48.744;9.176;2023-05-16T00:49:35;18.42;;;10.98;;
80404;SDS011;69733;48.744;9.176;2023-05-16T00:52:00;22.05;;;12.57;;
80404;SDS011;69733;48.744;9.176;2023-05-16T00:54:26;18.30;;;11.40;;
80404;SDS011;69733;48.744;9.176;2023-05-16T00:56:56;19.88;;;11.77;;
80404;SDS011;69733;48.744;9.176;2023-05-16T00:59:22;17.70;;;11.65;;
80404;SDS011;69733;48.744;9.176;2023-05-16T01:01:48;22.17;;;13.45;;
80404;SDS011;69733;48.744;9.176;2023-05-16T01:04:15;22.20;;;12.15;;
80404;SDS011;69733;48.744;9.176;2023-05-16T01:06:41;21.83;;;12.68;;
80404;SDS011;69733;48.744;9.176;2023-05-16T01:09:07;18.10;;;11.55;;
80404;SDS011;69733;48.744;9.176;2023-05-16T01:11:35;22.58;;;12.73;;
80404;SDS011;69733;48.744;9.176;2023-05-16T01:20:02;21.92;;;12.80;;
80404;SDS011;69733;48.744;9.176;2023-05-16T01:27:55;24.58;;;13.90;;
80404;SDS011;69733;48.744;9.176;2023-05-16T01:30:21;24.55;;;13.38;;
80404;SDS011;69733;48.744;9.176;2023-05-16T01:32:47;24.38;;;14.35;;
80404;SDS011;69733;48.744;9.176;2023-05-16T01:35:13;24.20;;;13.77;;
80404;SDS011;69733;48.744;9.176;2023-05-16T01:38:02;29.35;;;15.25;;
80404;SDS011;69733;48.744;9.176;2023-05-16T01:40:37;25.10;;;14.38;;
80404;SDS011;69733;48.744;9.176;2023-05-16T01:43:20;29.52;;;15.50;;
80404;SDS011;69733;48.744;9.176;2023-05-16T01:45:55;30.45;;;15.77;;
80404;SDS011;69733;48.744;9.176;2023-05-16T01:48:31;27.98;;;14.52;;
80404;SDS011;69733;48.744;9.176;2023-05-16T01:51:03;27.77;;;15.85;;
80404;SDS011;69733;48.744;9.176;2023-05-16T01:53:31;30.55;;;15.68;;
80404;SDS011;69733;48.744;9.176;2023-05-16T01:56:00;33.22;;;18.02;;
80404;SDS011;69733;48.744;9.176;2023-05-16T01:58:30;29.67;;;16.33;;
80404;SDS011;69733;48.744;9.176;2023-05-16T02:01:01;31.33;;;16.75;;
80404;SDS011;69733;48.744;9.176;2023-05-16T02:03:28;29.25;;;15.90;;
80404;SDS011;69733;48.744;9.176;2023-05-16T02:05:54;30.95;;;16.48;;
80404;SDS011;69733;48.744;9.176;2023-05-16T02:08:20;30.35;;;17.05;;
80404;SDS011;69733;48.744;9.176;2023-05-16T02:10:46;29.13;;;15.05;;
80404;SDS011;69733;48.744;9.176;2023-05-16T02:13:11;29.67;;;16.50;;
80404;SDS011;69733;48.744;9.176;2023-05-16T02:15:36;30.48;;;16.40;;
80404;SDS011;69733;48.744;9.176;2023-05-16T02:18:02;33.33;;;16.17;;
80404;SDS011;69733;48.744;9.176;2023-05-16T02:20:27;31.08;;;16.00;;
80404;SDS011;69733;48.744;9.176;2023-05-16T02:22:52;29.83;;;15.63;;
80404;SDS011;69733;48.744;9.176;2023-05-16T02:25:18;30.63;;;15.73;;
80404;SDS011;69733;48.744;9.176;2023-05-16T02:27:43;30.67;;;15.70;;
80404;SDS011;69733;48.744;9.176;2023-05-16T02:30:12;30.00;;;15.87;;
80404;SDS011;69733;48.744;9.176;2023-05-16T02:32:38;29.42;;;16.35;;
80404;SDS011;69733;48.744;9.176;2023-05-16T02:35:04;35.10;;;17.73;;
80404;SDS011;69733;48.744;9.176;2023-05-16T02:37:30;32.33;;;16.00;;
80404;SDS011;69733;48.744;9.176;2023-05-16T02:39:55;36.87;;;16.90;;
80404;SDS011;69733;48.744;9.176;2023-05-16T02:42:20;34.93;;;18.10;;
80404;SDS011;69733;48.744;9.176;2023-05-16T02:44:45;29.00;;;17.00;;
80404;SDS011;69733;48.744;9.176;2023-05-16T02:47:11;30.70;;;15.27;;
80404;SDS011;69733;48.744;9.176;2023-05-16T02:49:36;32.90;;;17.10;;
80404;SDS011;69733;48.744;9.176;2023-05-16T02:52:01;35.58;;;15.55;;
80404;SDS011;69733;48.744;9.176;2023-05-16T02:54:27;31.40;;;15.30;;
80404;SDS011;69733;48.744;9.176;2023-05-16T02:56:52;37.03;;;16.73;;
80404;SDS011;69733;48.744;9.176;2023-05-16T02:59:18;31.70;;;16.23;;
80404;SDS011;69733;48.744;9.176;2023-05-16T03:01:43;34.13;;;16.97;;
80404;SDS011;69733;48.744;9.176;2023-05-16T03:04:08;37.70;;;17.63;;
80404;SDS011;69733;48.744;9.176;2023-05-16T03:06:34;30.90;;;16.00;;
80404;SDS011;69733;48.744;9.176;2023-05-16T03:08:59;34.58;;;16.75;;
80404;SDS011;69733;48.744;9.176;2023-05-16T03:11:25;32.13;;;16.30;;
80404;SDS011;69733;48.744;9.176;2023-05-16T03:13:52;30.95;;;15.73;;
80404;SDS011;69733;48.744;9.176;2023-05-16T03:16:18;30.10;;;15.05;;
80404;SDS011;69733;48.744;9.176;2023-05-16T03:18:43;35.70;;;16.57;;
80404;SDS011;69733;48.744;9.176;2023-05-16T03:21:09;34.08;;;16.63;;
80404;SDS011;69733;48.744;9.176;2023-05-16T03:23:34;35.33;;;16.30;;
80404;SDS011;69733;48.744;9.176;2023-05-16T03:25:59;34.53;;;16.17;;
80404;SDS011;69733;48.744;9.176;2023-05-16T03:28:25;29.65;;;16.13;;
80404;SDS011;69733;48.744;9.176;2023-05-16T03:30:50;39.08;;;18.20;;
80404;SDS011;69733;48.744;9.176;2023-05-16T03:33:16;38.67;;;19.15;;
80404;SDS011;69733;48.744;9.176;2023-05-16T03:35:41;37.75;;;17.30;;
80404;SDS011;69733;48.744;9.176;2023-05-16T03:38:07;37.17;;;17.45;;
80404;SDS011;69733;48.744;9.176;2023-05-16T03:40:33;35.97;;;16.73;;
80404;SDS011;69733;48.744;9.176;2023-05-16T03:42:58;40.67;;;19.80;;
80404;SDS011;69733;48.744;9.176;2023-05-16T03:45:23;43.97;;;18.98;;
80404;SDS011;69733;48.744;9.176;2023-05-16T03:47:48;36.90;;;18.13;;
80404;SDS011;69733;48.744;9.176;2023-05-16T03:50:14;42.65;;;18.55;;
80404;SDS011;69733;48.744;9.176;2023-05-16T03:52:43;37.97;;;17.85;;
80404;SDS011;69733;48.744;9.176;2023-05-16T03:55:11;39.20;;;17.50;;
80404;SDS011;69733;48.744;9.176;2023-05-16T03:57:39;40.83;;;17.80;;
80404;SDS011;69733;48.744;9.176;2023-05-16T04:00:06;41.38;;;19.23;;
80404;SDS011;69733;48.744;9.176;2023-05-16T04:02:32;38.80;;;19.40;;
80404;SDS011;69733;48.744;9.176;2023-05-16T04:04:58;47.50;;;19.45;;
80404;SDS011;69733;48.744;9.176;2023-05-16T04:07:23;43.75;;;19.52;;
80404;SDS011;69733;48.744;9.176;2023-05-16T04:09:49;39.63;;;18.65;;
80404;SDS011;69733;48.744;9.176;2023-05-16T04:12:15;39.60;;;18.88;;
80404;SDS011;69733;48.744;9.176;2023-05-16T04:14:40;42.45;;;20.45;;
80404;SDS011;69733;48.744;9.176;2023-05-16T04:17:06;40.05;;;18.10;;
80404;SDS011;69733;48.744;9.176;2023-05-16T04:19:31;48.67;;;20.67;;
80404;SDS011;69733;48.744;9.176;2023-05-16T04:21:56;41.13;;;19.45;;
80404;SDS011;69733;48.744;9.176;2023-05-16T04:24:22;43.17;;;20.70;;
80404;SDS011;69733;48.744;9.176;2023-05-16T04:26:50;43.05;;;20.00;;
80404;SDS011;69733;48.744;9.176;2023-05-16T04:29:16;45.50;;;18.85;;
80404;SDS011;69733;48.744;9.176;2023-05-16T04:31:41;43.90;;;19.73;;
80404;SDS011;69733;48.744;9.176;2023-05-16T04:34:07;43.33;;;19.97;;
80404;SDS011;69733;48.744;9.176;2023-05-16T04:36:32;43.97;;;19.15;;
80404;SDS011;69733;48.744;9.176;2023-05-16T04:38:59;44.88;;;19.83;;
80404;SDS011;69733;48.744;9.176;2023-05-16T04:41:25;46.42;;;19.77;;
80404;SDS011;69733;48.744;9.176;2023-05-16T04:43:50;44.05;;;19.55;;
80404;SDS011;69733;48.744;9.176;2023-05-16T04:46:15;42.47;;;20.05;;
80404;SDS011;69733;48.744;9.176;2023-05-16T04:48:41;42.80;;;20.05;;
80404;SDS011;69733;48.744;9.176;2023-05-16T04:51:06;43.57;;;20.00;;
80404;SDS011;69733;48.744;9.176;2023-05-16T04:53:32;40.65;;;18.63;;
80404;SDS011;69733;48.744;9.176;2023-05-16T04:55:58;41.42;;;19.35;;
80404;SDS011;69733;48.744;9.176;2023-05-16T04:58:26;38.55;;;18.05;;
80404;SDS011;69733;48.744;9.176;2023-05-16T05:00:52;40.10;;;18.67;;
80404;SDS011;69733;48.744;9.176;2023-05-16T05:03:18;41.47;;;19.85;;
80404;SDS011;69733;48.744;9.176;2023-05-16T05:05:43;42.60;;;20.40;;
80404;SDS011;69733;48.744;9.176;2023-05-16T05:08:08;39.70;;;19.13;;
80404;SDS011;69733;48.744;9.176;2023-05-16T05:10:34;40.30;;;19.05;;
80404;SDS011;69733;48.744;9.176;2023-05-16T05:12:59;43.78;;;19.77;;
80404;SDS011;69733;48.744;9.176;2023-05-16T05:15:25;38.83;;;18.13;;
80404;SDS011;69733;48.744;9.176;2023-05-16T05:17:50;42.72;;;19.33;;
80404;SDS011;69733;48.744;9.176;2023-05-16T05:20:16;38.63;;;17.10;;
80404;SDS011;69733;48.744;9.176;2023-05-16T05:22:41;39.72;;;18.10;;
80404;SDS011;69733;48.744;9.176;2023-05-16T05:25:06;39.53;;;18.23;;
80404;SDS011;69733;48.744;9.176;2023-05-16T05:27:32;39.58;;;18.58;;
80404;SDS011;69733;48.744;9.176;2023-05-16T05:29:57;42.72;;;20.02;;
80404;SDS011;69733;48.744;9.176;2023-05-16T05:32:23;42.25;;;18.73;;
80404;SDS011;69733;48.744;9.176;2023-05-16T05:34:48;39.60;;;17.85;;
80404;SDS011;69733;48.744;9.176;2023-05-16T05:37:13;40.23;;;18.50;;
80404;SDS011;69733;48.744;9.176;2023-05-16T05:39:39;38.90;;;18.10;;
80404;SDS011;69733;48.744;9.176;2023-05-16T05:42:08;38.63;;;18.23;;
80404;SDS011;69733;48.744;9.176;2023-05-16T05:44:33;39.13;;;17.27;;
80404;SDS011;69733;48.744;9.176;2023-05-16T05:46:59;42.22;;;18.55;;
80404;SDS011;69733;48.744;9.176;2023-05-16T05:49:24;35.63;;;16.80;;
80404;SDS011;69733;48.744;9.176;2023-05-16T05:51:51;35.70;;;17.58;;
80404;SDS011;69733;48.744;9.176;2023-05-16T05:54:17;39.33;;;18.77;;
80404;SDS011;69733;48.744;9.176;2023-05-16T05:56:43;38.38;;;18.50;;
80404;SDS011;69733;48.744;9.176;2023-05-16T05:59:08;39.13;;;17.67;;
80404;SDS011;69733;48.744;9.176;2023-05-16T06:01:33;41.97;;;19.80;;
80404;SDS011;69733;48.744;9.176;2023-05-16T06:03:59;36.33;;;16.60;;
80404;SDS011;69733;48.744;9.176;2023-05-16T06:06:24;35.78;;;16.90;;
80404;SDS011;69733;48.744;9.176;2023-05-16T06:08:50;37.77;;;18.00;;
80404;SDS011;69733;48.744;9.176;2023-05-16T06:11:15;34.25;;;15.88;;
80404;SDS011;69733;48.744;9.176;2023-05-16T06:13:40;34.67;;;16.30;;
80404;SDS011;69733;48.744;9.176;2023-05-16T06:16:06;39.35;;;17.25;;
80404;SDS011;69733;48.744;9.176;2023-05-16T06:18:31;38.50;;;18.57;;
80404;SDS011;69733;48.744;9.176;2023-05-16T06:20:56;39.30;;;18.88;;
80404;SDS011;69733;48.744;9.176;2023-05-16T06:23:21;33.93;;;16.17;;
80404;SDS011;69733;48.744;9.176;2023-05-16T06:25:47;35.30;;;16.93;;
80404;SDS011;69733;48.744;9.176;2023-05-16T06:28:12;33.80;;;16.77;;
80404;SDS011;69733;48.744;9.176;2023-05-16T06:30:37;36.73;;;17.47;;
80404;SDS011;69733;48.744;9.176;2023-05-16T06:33:03;34.67;;;16.60;;
80404;SDS011;69733;48.744;9.176;2023-05-16T06:35:28;37.93;;;17.30;;
80404;SDS011;69733;48.744;9.176;2023-05-16T06:37:53;35.73;;;16.50;;
80404;SDS011;69733;48.744;9.176;2023-05-16T06:40:18;31.37;;;15.67;;
80404;SDS011;69733;48.744;9.176;2023-05-16T06:42:44;35.75;;;16.55;;
80404;SDS011;69733;48.744;9.176;2023-05-16T06:45:09;29.45;;;15.18;;
80404;SDS011;69733;48.744;9.176;2023-05-16T06:47:35;31.90;;;15.55;;
80404;SDS011;69733;48.744;9.176;2023-05-16T06:50:00;34.10;;;16.50;;
80404;SDS011;69733;48.744;9.176;2023-05-16T06:52:26;28.23;;;15.00;;
80404;SDS011;69733;48.744;9.176;2023-05-16T06:54:51;34.70;;;16.88;;
80404;SDS011;69733;48.744;9.176;2023-05-16T06:57:16;31.85;;;16.85;;
80404;SDS011;69733;48.744;9.176;2023-05-16T06:59:42;29.17;;;14.50;;
80404;SDS011;69733;48.744;9.176;2023-05-16T07:02:07;27.95;;;15.18;;
80404;SDS011;69733;48.744;9.176;2023-05-16T07:04:33;34.58;;;15.63;;
80404;SDS011;69733;48.744;9.176;2023-05-16T07:07:00;30.33;;;16.17;;
80404;SDS011;69733;48.744;9.176;2023-05-16T07:09:26;30.15;;;15.80;;
80404;SDS011;69733;48.744;9.176;2023-05-16T07:11:54;27.65;;;15.13;;
80404;SDS011;69733;48.744;9.176;2023-05-16T07:14:19;27.45;;;15.35;;
80404;SDS011;69733;48.744;9.176;2023-05-16T07:16:47;28.73;;;14.88;;
80404;SDS011;69733;48.744;9.176;2023-05-16T07:19:12;25.25;;;13.80;;
80404;SDS011;69733;48.744;9.176;2023-05-16T07:21:38;27.30;;;13.80;;
80404;SDS011;69733;48.744;9.176;2023-05-16T07:24:03;27.80;;;14.30;;
80404;SDS011;69733;48.744;9.176;2023-05-16T07:26:29;25.65;;;14.30;;
80404;SDS011;69733;48.744;9.176;2023-05-16T07:28:54;24.80;;;12.77;;
80404;SDS011;69733;48.744;9.176;2023-05-16T07:31:20;22.73;;;13.35;;
80404;SDS011;69733;48.744;9.176;2023-05-16T07:33:49;23.60;;;11.10;;
80404;SDS011;69733;48.744;9.176;2023-05-16T07:36:14;20.40;;;12.27;;
80404;SDS011;69733;48.744;9.176;2023-05-16T07:38:40;18.27;;;10.55;;
80404;SDS011;69733;48.744;9.176;2023-05-16T07:41:05;18.48;;;10.80;;
80404;SDS011;69733;48.744;9.176;2023-05-16T07:43:31;15.48;;;9.60;;
80404;SDS011;69733;48.744;9.176;2023-05-16T07:45:59;15.85;;;9.45;;
80404;SDS011;69733;48.744;9.176;2023-05-16T07:48:25;16.08;;;8.75;;
80404;SDS011;69733;48.744;9.176;2023-05-16T07:50:50;12.97;;;7.37;;
80404;SDS011;69733;48.744;9.176;2023-05-16T07:53:16;15.70;;;8.40;;
80404;SDS011;69733;48.744;9.176;2023-05-16T07:55:41;12.63;;;7.00;;
80404;SDS011;69733;48.744;9.176;2023-05-16T07:58:07;10.45;;;6.20;;
80404;SDS011;69733;48.744;9.176;2023-05-16T08:00:32;10.15;;;6.60;;
80404;SDS011;69733;48.744;9.176;2023-05-16T08:02:57;9.57;;;6.60;;
80404;SDS011;69733;48.744;9.176;2023-05-16T08:05:23;9.48;;;6.22;;
80404;SDS011;69733;48.744;9.176;2023-05-16T08:07:48;10.82;;;6.10;;
80404;SDS011;69733;48.744;9.176;2023-05-16T08:10:14;9.47;;;6.13;;
80404;SDS011;69733;48.744;9.176;2023-05-16T08:12:40;10.05;;;6.82;;
80404;SDS011;69733;48.744;9.176;2023-05-16T08:15:05;11.48;;;8.00;;
80404;SDS011;69733;48.744;9.176;2023-05-16T08:17:31;10.07;;;7.18;;
80404;SDS011;69733;48.744;9.176;2023-05-16T08:19:56;10.82;;;7.72;;
80404;SDS011;69733;48.744;9.176;2023-05-16T08:22:23;11.18;;;8.10;;
80404;SDS011;69733;48.744;9.176;2023-05-16T08:24:49;13.20;;;8.00;;
80404;SDS011;69733;48.744;9.176;2023-05-16T08:27:14;11.60;;;7.45;;
80404;SDS011;69733;48.744;9.176;2023-05-16T08:29:40;14.20;;;8.00;;
80404;SDS011;69733;48.744;9.176;2023-05-16T08:32:07;12.77;;;7.45;;
80404;SDS011;69733;48.744;9.176;2023-05-16T08:34:32;12.25;;;7.95;;
80404;SDS011;69733;48.744;9.176;2023-05-16T08:36:58;13.02;;;7.47;;
80404;SDS011;69733;48.744;9.176;2023-05-16T08:39:24;12.75;;;8.20;;
80404;SDS011;69733;48.744;9.176;2023-05-16T08:41:50;14.05;;;9.25;;
80404;SDS011;69733;48.744;9.176;2023-05-16T08:44:15;13.20;;;8.00;;
80404;SDS011;69733;48.744;9.176;2023-05-16T08:46:52;15.30;;;8.88;;
80404;SDS011;69733;48.744;9.176;2023-05-16T08:49:18;15.63;;;7.80;;
80404;SDS011;69733;48.744;9.176;2023-05-16T08:51:47;13.95;;;8.82;;
80404;SDS011;69733;48.744;9.176;2023-05-16T08:54:16;13.75;;;8.05;;
80404;SDS011;69733;48.744;9.176;2023-05-16T08:56:42;15.82;;;9.27;;
80404;SDS011;69733;48.744;9.176;2023-05-16T08:59:08;15.55;;;8.20;;
80404;SDS011;69733;48.744;9.176;2023-05-16T09:01:35;13.50;;;7.95;;
80404;SDS011;69733;48.744;9.176;2023-05-16T09:04:01;15.65;;;8.88;;
80404;SDS011;69733;48.744;9.176;2023-05-16T09:06:28;16.85;;;9.48;;
80404;SDS011;69733;48.744;9.176;2023-05-16T09:08:53;18.92;;;11.20;;
80404;SDS011;69733;48.744;9.176;2023-05-16T09:11:19;17.42;;;10.32;;
80404;SDS011;69733;48.744;9.176;2023-05-16T09:13:45;18.27;;;10.07;;
80404;SDS011;69733;48.744;9.176;2023-05-16T09:16:14;18.80;;;11.05;;
80404;SDS011;69733;48.744;9.176;2023-05-16T09:18:45;20.23;;;12.13;;
80404;SDS011;69733;48.744;9.176;2023-05-16T09:23:41;18.17;;;9.87;;
80404;SDS011;69733;48.744;9.176;2023-05-16T09:26:08;16.73;;;9.82;;
80404;SDS011;69733;48.744;9.176;2023-05-16T09:28:36;18.52;;;9.80;;
80404;SDS011;69733;48.744;9.176;2023-05-16T09:31:02;17.75;;;10.10;;
80404;SDS011;69733;48.744;9.176;2023-05-16T09:33:28;18.33;;;10.07;;
80404;SDS011;69733;48.744;9.176;2023-05-16T09:35:57;17.48;;;10.02;;
80404;SDS011;69733;48.744;9.176;2023-05-16T09:38:24;20.15;;;9.80;;
80404;SDS011;69733;48.744;9.176;2023-05-16T09:40:51;19.83;;;11.68;;
80404;SDS011;69733;48.744;9.176;2023-05-16T09:43:17;18.20;;;10.75;;
80404;SDS011;69733;48.744;9.176;2023-05-16T09:45:47;19.00;;;10.70;;
80404;SDS011;69733;48.744;9.176;2023-05-16T09:48:13;18.55;;;10.43;;
80404;SDS011;69733;48.744;9.176;2023-05-16T09:50:40;21.20;;;11.82;;
80404;SDS011;69733;48.744;9.176;2023-05-16T09:53:12;19.70;;;11.43;;
80404;SDS011;69733;48.744;9.176;2023-05-16T09:55:37;21.77;;;12.43;;
80404;SDS011;69733;48.744;9.176;2023-05-16T09:58:03;23.08;;;12.68;;
80404;SDS011;69733;48.744;9.176;2023-05-16T10:00:29;21.08;;;11.82;;
80404;SDS011;69733;48.744;9.176;2023-05-16T10:02:56;23.50;;;12.77;;
80404;SDS011;69733;48.744;9.176;2023-05-16T10:05:23;19.25;;;12.43;;
80404;SDS011;69733;48.744;9.176;2023-05-16T10:07:50;21.55;;;12.23;;
80404;SDS011;69733;48.744;9.176;2023-05-16T10:10:20;21.95;;;12.18;;
80404;SDS011;69733;48.744;9.176;2023-05-16T10:12:45;20.38;;;11.52;;
80404;SDS011;69733;48.744;9.176;2023-05-16T10:15:34;20.38;;;11.25;;
80404;SDS011;69733;48.744;9.176;2023-05-16T10:18:02;19.80;;;10.73;;
80404;SDS011;69733;48.744;9.176;2023-05-16T10:20:28;23.23;;;11.27;;
80404;SDS011;69733;48.744;9.176;2023-05-16T10:22:54;22.50;;;13.00;;
80404;SDS011;69733;48.744;9.176;2023-05-16T10:25:43;20.15;;;11.32;;
80404;SDS011;69733;48.744;9.176;2023-05-16T10:28:10;20.42;;;10.95;;
80404;SDS011;69733;48.744;9.176;2023-05-16T10:30:36;24.02;;;12.23;;
80404;SDS011;69733;48.744;9.176;2023-05-16T10:33:05;22.45;;;11.38;;
80404;SDS011;69733;48.744;9.176;2023-05-16T10:35:32;21.45;;;11.15;;
80404;SDS011;69733;48.744;9.176;2023-05-16T10:38:01;23.02;;;11.52;;
80404;SDS011;69733;48.744;9.176;2023-05-16T10:40:27;21.67;;;11.75;;
80404;SDS011;69733;48.744;9.176;2023-05-16T10:43:25;19.42;;;11.05;;
80404;SDS011;69733;48.744;9.176;2023-05-16T10:45:55;17.40;;;9.60;;
80404;SDS011;69733;48.744;9.176;2023-05-16T10:48:28;20.85;;;11.55;;
80404;SDS011;69733;48.744;9.176;2023-05-16T10:50:58;17.42;;;9.75;;
80404;SDS011;69733;48.744;9.176;2023-05-16T10:53:53;19.38;;;10.40;;
80404;SDS011;69733;48.744;9.176;2023-05-16T10:56:22;19.52;;;10.15;;
80404;SDS011;69733;48.744;9.176;2023-05-16T10:58:52;21.90;;;10.40;;
80404;SDS011;69733;48.744;9.176;2023-05-16T11:01:33;19.30;;;11.05;;
80404;SDS011;69733;48.744;9.176;2023-05-16T11:04:00;17.35;;;9.13;;
80404;SDS011;69733;48.744;9.176;2023-05-16T11:09:06;15.88;;;9.18;;
80404;SDS011;69733;48.744;9.176;2023-05-16T11:14:22;19.08;;;9.55;;
80404;SDS011;69733;48.744;9.176;2023-05-16T11:19:43;16.08;;;8.90;;
80404;SDS011;69733;48.744;9.176;2023-05-16T11:29:52;16.90;;;9.00;;
80404;SDS011;69733;48.744;9.176;2023-05-16T11:32:19;16.10;;;7.47;;
80404;SDS011;69733;48.744;9.176;2023-05-16T11:34:46;16.33;;;8.25;;
80404;SDS011;69733;48.744;9.176;2023-05-16T11:37:12;18.25;;;8.32;;
80404;SDS011;69733;48.744;9.176;2023-05-16T11:42:07;12.95;;;7.45;;
80404;SDS011;69733;48.744;9.176;2023-05-16T11:44:33;13.48;;;6.35;;
80404;SDS011;69733;48.744;9.176;2023-05-16T11:46:59;14.27;;;7.32;;
80404;SDS011;69733;48.744;9.176;2023-05-16T11:49:26;13.07;;;6.95;;
80404;SDS011;69733;48.744;9.176;2023-05-16T11:51:55;14.70;;;7.28;;
80404;SDS011;69733;48.744;9.176;2023-05-16T11:54:21;12.80;;;6.90;;
80404;SDS011;69733;48.744;9.176;2023-05-16T11:56:48;13.02;;;6.60;;
80404;SDS011;69733;48.744;9.176;2023-05-16T11:59:14;12.63;;;5.88;;
80404;SDS011;69733;48.744;9.176;2023-05-16T12:01:40;12.88;;;6.97;;
80404;SDS011;69733;48.744;9.176;2023-05-16T12:04:09;11.98;;;6.47;;
80404;SDS011;69733;48.744;9.176;2023-05-16T12:06:36;12.43;;;6.05;;
80404;SDS011;69733;48.744;9.176;2023-05-16T12:09:10;12.57;;;5.70;;
80404;SDS011;69733;48.744;9.176;2023-05-16T12:11:37;11.93;;;6.80;;
80404;SDS011;69733;48.744;9.176;2023-05-16T12:14:07;13.45;;;6.95;;
80404;SDS011;69733;48.744;9.176;2023-05-16T12:16:34;13.05;;;6.68;;
80404;SDS011;69733;48.744;9.176;2023-05-16T12:19:01;11.90;;;6.50;;
80404;SDS011;69733;48.744;9.176;2023-05-16T12:21:28;12.75;;;6.53;;
80404;SDS011;69733;48.744;9.176;2023-05-16T12:23:55;11.65;;;6.53;;
80404;SDS011;69733;48.744;9.176;2023-05-16T12:26:25;14.57;;;6.85;;
80404;SDS011;69733;48.744;9.176;2023-05-16T12:28:55;13.15;;;6.22;;
80404;SDS011;69733;48.744;9.176;2023-05-16T12:31:24;11.77;;;6.03;;
80404;SDS011;69733;48.744;9.176;2023-05-16T12:33:52;11.77;;;5.90;;
80404;SDS011;69733;48.744;9.176;2023-05-16T12:36:19;9.13;;;5.40;;
80404;SDS011;69733;48.744;9.176;2023-05-16T12:38:47;11.45;;;4.57;;
80404;SDS011;69733;48.744;9.176;2023-05-16T12:41:19;9.52;;;5.28;;
80404;SDS011;69733;48.744;9.176;2023-05-16T12:43:48;8.05;;;4.35;;
80404;SDS011;69733;48.744;9.176;2023-05-16T12:46:14;7.22;;;4.30;;
80404;SDS011;69733;48.744;9.176;2023-05-16T12:48:40;8.38;;;4.57;;
80404;SDS011;69733;48.744;9.176;2023-05-16T12:51:28;8.25;;;4.10;;
80404;SDS011;69733;48.744;9.176;2023-05-16T12:53:56;6.88;;;4.18;;
80404;SDS011;69733;48.744;9.176;2023-05-16T12:56:22;7.35;;;4.03;;
80404;SDS011;69733;48.744;9.176;2023-05-16T12:58:49;6.63;;;3.45;;
80404;SDS011;69733;48.744;9.176;2023-05-16T13:01:16;5.97;;;3.42;;
80404;SDS011;69733;48.744;9.176;2023-05-16T13:03:41;5.57;;;3.65;;
80404;SDS011;69733;48.744;9.176;2023-05-16T13:06:07;5.45;;;3.05;;
80404;SDS011;69733;48.744;9.176;2023-05-16T13:08:32;6.80;;;3.65;;
80404;SDS011;69733;48.744;9.176;2023-05-16T13:10:58;4.60;;;3.60;;
80404;SDS011;69733;48.744;9.176;2023-05-16T13:13:27;6.13;;;3.72;;
80404;SDS011;69733;48.744;9.176;2023-05-16T13:15:52;5.97;;;3.17;;
80404;SDS011;69733;48.744;9.176;2023-05-16T13:18:17;6.78;;;3.95;;
80404;SDS011;69733;48.744;9.176;2023-05-16T13:20:43;5.05;;;3.30;;
80404;SDS011;69733;48.744;9.176;2023-05-16T13:23:08;5.47;;;3.97;;
80404;SDS011;69733;48.744;9.176;2023-05-16T13:25:33;5.95;;;3.65;;
80404;SDS011;69733;48.744;9.176;2023-05-16T13:27:59;5.35;;;3.78;;
80404;SDS011;69733;48.744;9.176;2023-05-16T13:30:24;5.82;;;3.03;;
80404;SDS011;69733;48.744;9.176;2023-05-16T13:32:50;5.97;;;3.22;;
80404;SDS011;69733;48.744;9.176;2023-05-16T13:35:18;4.05;;;2.67;;
80404;SDS011;69733;48.744;9.176;2023-05-16T13:37:43;4.75;;;2.60;;
80404;SDS011;69733;48.744;9.176;2023-05-16T13:40:09;4.80;;;2.92;;
80404;SDS011;69733;48.744;9.176;2023-05-16T13:42:35;5.53;;;2.88;;
80404;SDS011;69733;48.744;9.176;2023-05-16T13:45:02;4.85;;;2.85;;
80404;SDS011;69733;48.744;9.176;2023-05-16T13:47:31;4.15;;;2.38;;
80404;SDS011;69733;48.744;9.176;2023-05-16T13:49:57;5.07;;;2.83;;
80404;SDS011;69733;48.744;9.176;2023-05-16T13:52:24;4.82;;;2.47;;
80404;SDS011;69733;48.744;9.176;2023-05-16T13:54:49;3.78;;;2.10;;
80404;SDS011;69733;48.744;9.176;2023-05-16T13:57:15;3.75;;;2.22;;
80404;SDS011;69733;48.744;9.176;2023-05-16T13:59:41;6.75;;;2.33;;
80404;SDS011;69733;48.744;9.176;2023-05-16T14:02:06;5.57;;;2.28;;
80404;SDS011;69733;48.744;9.176;2023-05-16T14:04:32;4.27;;;2.00;;
80404;SDS011;69733;48.744;9.176;2023-05-16T14:06:57;4.18;;;2.50;;
80404;SDS011;69733;48.744;9.176;2023-05-16T14:09:22;5.93;;;2.50;;
80404;SDS011;69733;48.744;9.176;2023-05-16T14:11:48;4.25;;;2.58;;
80404;SDS011;69733;48.744;9.176;2023-05-16T14:14:13;4.27;;;2.70;;
80404;SDS011;69733;48.744;9.176;2023-05-16T14:16:38;4.03;;;2.53;;
80404;SDS011;69733;48.744;9.176;2023-05-16T14:19:08;4.95;;;2.42;;
80404;SDS011;69733;48.744;9.176;2023-05-16T14:21:34;3.58;;;2.20;;
80404;SDS011;69733;48.744;9.176;2023-05-16T14:23:59;3.78;;;2.70;;
80404;SDS011;69733;48.744;9.176;2023-05-16T14:26:25;5.40;;;2.95;;
80404;SDS011;69733;48.744;9.176;2023-05-16T14:28:50;4.18;;;2.53;;
80404;SDS011;69733;48.744;9.176;2023-05-16T14:31:16;6.38;;;3.30;;
80404;SDS011;69733;48.744;9.176;2023-05-16T14:33:41;5.20;;;2.60;;
80404;SDS011;69733;48.744;9.176;2023-05-16T14:36:07;3.47;;;2.33;;
80404;SDS011;69733;48.744;9.176;2023-05-16T14:38:33;5.13;;;2.80;;
80404;SDS011;69733;48.744;9.176;2023-05-16T14:40:58;3.90;;;2.50;;
80404;SDS011;69733;48.744;9.176;2023-05-16T14:43:24;5.97;;;2.55;;
80404;SDS011;69733;48.744;9.176;2023-05-16T14:45:49;2.95;;;2.13;;
80404;SDS011;69733;48.744;9.176;2023-05-16T14:48:15;5.77;;;2.30;;
80404;SDS011;69733;48.744;9.176;2023-05-16T14:50:41;2.80;;;2.20;;
80404;SDS011;69733;48.744;9.176;2023-05-16T14:53:06;4.47;;;2.47;;
80404;SDS011;69733;48.744;9.176;2023-05-16T14:55:32;3.90;;;2.20;;
80404;SDS011;69733;48.744;9.176;2023-05-16T14:57:58;4.07;;;2.35;;